Time;durP1;ratioP1;P1;durP2;ratioP2;P2;SDS_P1;SDS_P2;PMS_P1;PMS_P2;Temp;Humidity;BMP_temperature;BMP_pressure;BME280_temperature;BME280_humidity;BME280_pressure;Samples;Min_cycle;Max_cycle;Signal;HPM_P1;HPM_P2
2023/05/25 00:02:17;;;;;;;9.95;3.60;;;14.60;86.90;;;;;;5063961;28;20033;-67
2023/05/25 00:04:47;;;;;;;13.10;2.83;;;14.50;86.20;;;;;;5059064;28;20382;-68
2023/05/25 00:07:13;;;;;;;9.43;3.13;;;14.40;87.70;;;;;;5062042;28;20056;-67
2023/05/25 00:09:43;;;;;;;8.85;2.85;;;14.30;87.00;;;;;;5064820;28;20040;-67
2023/05/25 00:12:09;;;;;;;5.65;2.40;;;14.30;88.80;;;;;;5058295;28;20033;-67
2023/05/25 00:14:34;;;;;;;5.40;2.10;;;14.30;86.20;;;;;;5061034;28;20047;-69
2023/05/25 00:17:02;;;;;;;11.33;2.23;;;14.30;85.20;;;;;;5061601;28;20044;-70
2023/05/25 00:19:31;;;;;;;7.88;2.75;;;14.30;85.60;;;;;;5064732;28;20032;-68
2023/05/25 00:22:00;;;;;;;5.30;2.00;;;14.10;86.70;;;;;;5057757;28;20040;-68
2023/05/25 00:24:27;;;;;;;7.85;2.35;;;14.20;85.70;;;;;;5065026;28;20292;-69
2023/05/25 00:26:52;;;;;;;;;;;14.20;85.70;;;;;;5067110;28;20037;-69
2023/05/25 00:29:18;;;;;;;4.90;2.20;;;14.10;86.40;;;;;;5063520;28;19920;-69
2023/05/25 00:31:44;;;;;;;4.17;2.13;;;14.10;85.30;;;;;;5094923;27;20081;-71
2023/05/25 00:34:09;;;;;;;8.40;2.30;;;14.10;84.80;;;;;;5060072;28;20516;-71
2023/05/25 00:36:35;;;;;;;5.77;3.30;;;14.10;84.70;;;;;;5066988;28;20293;-69
2023/05/25 00:39:01;;;;;;;6.80;2.50;;;14.10;84.80;;;;;;5064196;28;20029;-68
2023/05/25 00:41:27;;;;;;;5.73;2.40;;;14.10;85.60;;;;;;5060033;28;20040;-68
2023/05/25 00:43:52;;;;;;;6.80;2.55;;;14.10;85.00;;;;;;5056732;28;20039;-67
2023/05/25 00:46:18;;;;;;;9.03;2.60;;;14.00;85.70;;;;;;5063587;28;20044;-69
2023/05/25 00:48:44;;;;;;;9.00;1.98;;;13.90;84.90;;;;;;5059139;28;20583;-68
2023/05/25 00:51:12;;;;;;;4.38;2.63;;;13.90;84.40;;;;;;5068177;28;20028;-67
2023/05/25 00:53:38;;;;;;;8.73;2.65;;;13.90;85.00;;;;;;5065850;28;20036;-67
2023/05/25 00:56:14;;;;;;;7.00;2.40;;;14.00;85.20;;;;;;5062458;28;20048;-68
2023/05/25 00:58:41;;;;;;;6.25;2.30;;;13.90;85.20;;;;;;5089016;27;20037;-69
2023/05/25 01:01:11;;;;;;;8.30;2.17;;;13.90;85.80;;;;;;5065863;28;20538;-70
2023/05/25 01:03:41;;;;;;;11.27;2.55;;;13.80;85.60;;;;;;5057062;28;20025;-69
2023/05/25 01:06:12;;;;;;;6.05;2.30;;;13.80;85.70;;;;;;5056750;28;20063;-70
2023/05/25 01:08:41;;;;;;;9.77;2.50;;;13.80;85.50;;;;;;5062653;28;20025;-69
2023/05/25 01:11:10;;;;;;;6.60;2.17;;;13.70;85.90;;;;;;5057991;28;20041;-68
2023/05/25 01:13:37;;;;;;;8.60;2.50;;;13.70;85.90;;;;;;5066016;28;20020;-70
2023/05/25 01:16:05;;;;;;;9.38;2.85;;;13.70;85.70;;;;;;5064053;28;20493;-68
2023/05/25 01:18:32;;;;;;;9.05;2.30;;;13.70;86.10;;;;;;5057622;28;20024;-67
2023/05/25 01:21:11;;;;;;;4.93;2.15;;;13.70;85.10;;;;;;5065058;28;20047;-67
2023/05/25 01:23:41;;;;;;;10.93;2.63;;;13.70;85.80;;;;;;5065979;28;20066;-68
2023/05/25 01:26:12;;;;;;;11.13;2.40;;;13.70;85.90;;;;;;5059662;28;20410;-68
2023/05/25 01:28:42;;;;;;;7.03;2.00;;;13.70;85.80;;;;;;5061028;28;20039;-69
2023/05/25 01:31:08;;;;;;;6.15;2.97;;;13.70;85.70;;;;;;5065614;28;20056;-69
2023/05/25 01:33:35;;;;;;;3.70;1.92;;;13.60;85.90;;;;;;5060631;28;20067;-68
2023/05/25 01:36:02;;;;;;;9.27;2.53;;;13.50;85.90;;;;;;5058340;28;20044;-68
2023/05/25 01:38:28;;;;;;;5.72;2.03;;;13.40;87.20;;;;;;5060773;28;20056;-68
2023/05/25 01:40:53;;;;;;;7.40;2.30;;;13.50;87.80;;;;;;5061206;28;20060;-68
2023/05/25 01:43:19;;;;;;;4.27;2.63;;;13.40;87.90;;;;;;5066431;28;20629;-67
2023/05/25 01:45:45;;;;;;;8.37;2.53;;;13.30;86.50;;;;;;5061098;28;20036;-67
2023/05/25 01:48:52;;;;;;;5.50;2.25;;;13.30;88.10;;;;;;5057232;28;20029;-67
2023/05/25 01:51:41;;;;;;;8.88;3.10;;;13.20;87.10;;;;;;5043509;28;20029;-69
2023/05/25 01:54:12;;;;;;;12.50;4.82;;;13.30;87.50;;;;;;5057770;28;20089;-68
2023/05/25 01:56:38;;;;;;;6.82;2.47;;;13.20;87.60;;;;;;5060357;28;20028;-70
2023/05/25 01:59:07;;;;;;;6.05;2.40;;;13.20;88.20;;;;;;5059934;28;20040;-68
2023/05/25 02:01:35;;;;;;;8.20;2.50;;;13.20;88.00;;;;;;5059082;28;20047;-68
2023/05/25 02:04:02;;;;;;;10.90;3.08;;;13.10;88.30;;;;;;5058673;28;20094;-68
2023/05/25 02:06:28;;;;;;;8.35;2.92;;;13.00;88.70;;;;;;5064619;28;20512;-68
2023/05/25 02:08:53;;;;;;;5.23;2.50;;;12.90;89.00;;;;;;5062144;28;20028;-69
2023/05/25 02:11:19;;;;;;;11.33;2.60;;;13.00;88.90;;;;;;5066968;28;20036;-68
2023/05/25 02:13:45;;;;;;;9.88;3.13;;;13.00;89.10;;;;;;5063504;28;20108;-68
2023/05/25 02:16:10;;;;;;;4.70;2.63;;;13.00;89.30;;;;;;5060788;28;20082;-69
2023/05/25 02:18:36;;;;;;;14.83;2.80;;;13.00;89.30;;;;;;5066364;28;20031;-69
2023/05/25 02:21:01;;;;;;;9.33;2.77;;;13.00;89.20;;;;;;5061259;28;20470;-68
2023/05/25 02:23:27;;;;;;;7.20;2.77;;;13.00;89.30;;;;;;5064085;28;20028;-67
2023/05/25 02:25:53;;;;;;;7.10;2.50;;;12.90;89.30;;;;;;5060557;28;20053;-67
2023/05/25 02:28:18;;;;;;;6.60;3.03;;;12.90;89.60;;;;;;5061589;28;20032;-68
2023/05/25 02:30:44;;;;;;;4.97;2.70;;;12.80;89.40;;;;;;5060739;28;20029;-69
2023/05/25 02:33:10;;;;;;;12.90;3.07;;;12.80;90.40;;;;;;5058473;28;20044;-67
2023/05/25 02:35:37;;;;;;;10.55;3.10;;;12.80;89.70;;;;;;5058061;28;20627;-67
2023/05/25 02:38:02;;;;;;;;;;;12.80;90.10;;;;;;5067428;28;20021;-68
2023/05/25 02:40:28;;;;;;;10.82;3.00;;;12.70;90.50;;;;;;5062440;28;20109;-69
2023/05/25 02:42:53;;;;;;;7.67;2.77;;;12.80;90.40;;;;;;5060963;28;20025;-67
2023/05/25 02:45:19;;;;;;;10.17;2.73;;;12.70;90.60;;;;;;5059331;28;20033;-67
2023/05/25 02:47:44;;;;;;;8.83;2.60;;;12.60;90.40;;;;;;5056358;28;20029;-67
2023/05/25 02:50:10;;;;;;;9.13;2.80;;;12.50;90.60;;;;;;5055433;28;20787;-68
2023/05/25 02:52:36;;;;;;;5.67;3.33;;;12.50;91.10;;;;;;5058720;28;20028;-67
2023/05/25 02:55:02;;;;;;;9.13;3.17;;;12.50;91.10;;;;;;5056437;28;20039;-66
2023/05/25 02:57:28;;;;;;;6.03;2.72;;;12.60;90.90;;;;;;5056692;28;20116;-68
2023/05/25 02:59:54;;;;;;;;;;;12.50;91.10;;;;;;5055281;28;20040;-68
2023/05/25 03:02:24;;;;;;;8.95;3.00;;;12.50;91.60;;;;;;5057476;28;19913;-68
2023/05/25 03:04:52;;;;;;;6.38;2.53;;;12.40;91.40;;;;;;5055803;28;20494;-69
2023/05/25 03:07:19;;;;;;;11.68;3.10;;;12.40;91.20;;;;;;5057527;28;20028;-68
2023/05/25 03:09:45;;;;;;;9.32;2.60;;;12.50;91.60;;;;;;5057147;28;20037;-68
2023/05/25 03:12:10;;;;;;;13.73;3.43;;;12.40;91.40;;;;;;5055587;28;20029;-67
2023/05/25 03:14:36;;;;;;;4.30;2.67;;;12.40;91.60;;;;;;5057731;28;20036;-67
2023/05/25 03:17:01;;;;;;;7.70;3.17;;;12.20;91.70;;;;;;5058884;28;20413;-68
2023/05/25 03:19:27;;;;;;;7.17;3.03;;;12.20;92.40;;;;;;5059771;28;20420;-67
2023/05/25 03:21:52;;;;;;;11.27;3.30;;;12.30;92.30;;;;;;5057496;28;20033;-69
2023/05/25 03:24:18;;;;;;;10.27;3.13;;;12.20;92.00;;;;;;5057683;28;20029;-70
2023/05/25 03:26:44;;;;;;;9.23;2.97;;;12.20;92.30;;;;;;5055889;28;20586;-67
2023/05/25 03:29:10;;;;;;;12.38;3.60;;;12.10;92.30;;;;;;5060336;28;20135;-69
2023/05/25 03:31:36;;;;;;;7.60;3.20;;;12.20;92.30;;;;;;5062081;28;20024;-68
2023/05/25 03:34:02;;;;;;;8.10;4.20;;;12.20;92.10;;;;;;5054634;28;20036;-68
2023/05/25 03:36:29;;;;;;;;;;;12.20;92.50;;;;;;5089539;28;20029;-68
2023/05/25 03:38:55;;;;;;;8.00;3.23;;;12.20;92.30;;;;;;5060160;28;20396;-68
2023/05/25 03:41:21;;;;;;;9.73;3.77;;;12.10;92.40;;;;;;5064124;28;20291;-68
2023/05/25 03:43:46;;;;;;;8.37;3.30;;;12.00;93.00;;;;;;5094848;27;20809;-68
2023/05/25 03:46:12;;;;;;;10.30;3.97;;;12.00;93.10;;;;;;5058006;28;20029;-71
2023/05/25 03:48:37;;;;;;;9.23;3.00;;;12.00;93.10;;;;;;5061458;28;20028;-70
2023/05/25 03:51:03;;;;;;;7.13;3.27;;;12.00;93.00;;;;;;5058141;28;20029;-70
2023/05/25 03:53:29;;;;;;;10.57;4.77;;;11.90;93.20;;;;;;5057058;28;20142;-70
2023/05/25 03:55:55;;;;;;;10.85;3.38;;;11.90;93.50;;;;;;5057529;28;20029;-71
2023/05/25 03:58:21;;;;;;;9.43;3.00;;;11.90;93.70;;;;;;5060458;28;20498;-69
2023/05/25 04:00:48;;;;;;;8.43;3.27;;;11.80;93.60;;;;;;5057285;28;20126;-68
2023/05/25 04:03:14;;;;;;;9.02;3.40;;;11.90;93.40;;;;;;5060226;28;20037;-68
2023/05/25 04:05:40;;;;;;;7.63;3.55;;;11.80;93.40;;;;;;5055543;28;20403;-68
2023/05/25 04:08:07;;;;;;;7.97;3.78;;;11.80;93.80;;;;;;5064480;28;20033;-68
2023/05/25 04:10:32;;;;;;;;;;;11.90;93.50;;;;;;5057913;28;20032;-70
2023/05/25 04:12:58;;;;;;;8.20;3.38;;;11.90;93.50;;;;;;5059242;28;20415;-69
2023/05/25 04:15:24;;;;;;;8.57;3.50;;;11.90;93.60;;;;;;5061589;28;20025;-68
2023/05/25 04:17:50;;;;;;;6.40;3.40;;;11.80;93.60;;;;;;5058060;28;20294;-70
2023/05/25 04:20:15;;;;;;;10.03;3.47;;;11.80;93.70;;;;;;5060785;28;20493;-68
2023/05/25 04:22:42;;;;;;;7.43;3.27;;;11.80;94.00;;;;;;5056767;28;20050;-68
2023/05/25 04:25:09;;;;;;;10.30;3.63;;;11.80;93.90;;;;;;5059049;28;20036;-70
2023/05/25 04:27:35;;;;;;;8.80;3.63;;;11.80;94.10;;;;;;5058228;28;20066;-69
2023/05/25 04:30:01;;;;;;;10.75;3.45;;;11.80;93.80;;;;;;5092362;27;20048;-70
2023/05/25 04:32:30;;;;;;;9.65;3.88;;;11.70;94.20;;;;;;5065083;28;20048;-69
2023/05/25 04:34:57;;;;;;;12.38;3.42;;;11.70;94.20;;;;;;5059507;28;20048;-68
2023/05/25 04:37:26;;;;;;;13.70;4.03;;;11.70;93.80;;;;;;5062064;28;20028;-69
2023/05/25 04:39:52;;;;;;;11.85;3.80;;;11.70;94.30;;;;;;5065710;28;20094;-69
2023/05/25 04:42:18;;;;;;;13.30;4.22;;;11.70;94.10;;;;;;5057203;28;20037;-68
2023/05/25 04:44:43;;;;;;;12.07;4.00;;;11.60;94.50;;;;;;5059343;28;20043;-70
2023/05/25 04:47:09;;;;;;;12.73;4.10;;;11.70;94.60;;;;;;5063097;28;20382;-70
2023/05/25 04:49:35;;;;;;;13.50;4.20;;;11.80;94.60;;;;;;5089268;27;20033;-70
2023/05/25 04:52:00;;;;;;;9.37;3.97;;;11.70;94.70;;;;;;5054851;28;20413;-69
2023/05/25 04:54:26;;;;;;;9.87;3.97;;;11.70;94.50;;;;;;5058964;28;20036;-70
2023/05/25 04:56:52;;;;;;;16.23;3.87;;;11.60;94.50;;;;;;5056827;28;20041;-70
2023/05/25 04:59:17;;;;;;;16.77;3.90;;;11.60;95.00;;;;;;5056619;28;20552;-70
2023/05/25 05:01:44;;;;;;;10.83;4.50;;;11.60;94.90;;;;;;5060337;28;20099;-69
2023/05/25 05:04:10;;;;;;;;;;;11.70;94.80;;;;;;5056774;28;20037;-69
2023/05/25 05:06:36;;;;;;;15.35;4.40;;;11.70;94.80;;;;;;5063651;28;19954;-69
2023/05/25 05:09:02;;;;;;;12.50;4.47;;;11.90;94.40;;;;;;5054853;28;20033;-70
2023/05/25 05:11:28;;;;;;;13.93;4.22;;;12.10;94.50;;;;;;5061164;28;20039;-69
2023/05/25 05:13:54;;;;;;;10.40;4.43;;;12.50;93.70;;;;;;5057456;28;20033;-70
2023/05/25 05:16:20;;;;;;;;;;;12.50;93.40;;;;;;5061510;28;20386;-70
2023/05/25 05:18:45;;;;;;;13.48;4.18;;;12.60;93.40;;;;;;5058678;28;20359;-70
2023/05/25 05:21:11;;;;;;;12.87;4.70;;;12.60;93.20;;;;;;5058103;28;20037;-69
2023/05/25 05:23:37;;;;;;;19.17;4.80;;;12.70;93.20;;;;;;5058527;28;20472;-69
2023/05/25 05:26:03;;;;;;;10.73;4.93;;;12.80;92.80;;;;;;5055225;28;20043;-70
2023/05/25 05:28:29;;;;;;;;;;;13.00;93.10;;;;;;5061918;28;20044;-69
2023/05/25 05:30:55;;;;;;;19.80;5.05;;;13.30;92.30;;;;;;5058248;28;19917;-71
2023/05/25 05:33:22;;;;;;;13.97;5.03;;;13.80;91.30;;;;;;5059230;28;20037;-70
2023/05/25 05:35:49;;;;;;;13.07;5.65;;;13.60;91.50;;;;;;5058605;28;20029;-69
2023/05/25 05:38:14;;;;;;;16.50;5.22;;;14.00;90.80;;;;;;5057014;28;20025;-69
2023/05/25 05:40:41;;;;;;;16.25;4.72;;;14.00;90.30;;;;;;5061294;28;20067;-69
2023/05/25 05:43:09;;;;;;;22.30;4.72;;;13.70;90.80;;;;;;5055206;28;20041;-69
2023/05/25 05:45:34;;;;;;;22.75;6.07;;;13.50;91.30;;;;;;5057498;28;20080;-68
2023/05/25 05:48:00;;;;;;;16.87;5.53;;;13.10;91.70;;;;;;5055249;28;20469;-69
2023/05/25 05:50:25;;;;;;;18.50;5.37;;;13.30;91.70;;;;;;5055577;28;20033;-69
2023/05/25 05:52:52;;;;;;;15.90;5.43;;;13.30;91.80;;;;;;5055708;28;20040;-69
2023/05/25 05:55:19;;;;;;;15.95;6.07;;;13.50;91.60;;;;;;5057220;28;20021;-68
2023/05/25 05:57:45;;;;;;;16.00;5.15;;;13.60;91.50;;;;;;5057395;28;20029;-68
2023/05/25 06:00:11;;;;;;;16.57;4.17;;;14.10;90.70;;;;;;5056600;28;20048;-69
2023/05/25 06:02:37;;;;;;;;;;;14.10;90.40;;;;;;5059549;28;20125;-68
2023/05/25 06:05:03;;;;;;;13.23;5.32;;;14.10;90.40;;;;;;5055061;28;19912;-69
2023/05/25 06:07:29;;;;;;;14.35;5.50;;;14.30;90.40;;;;;;5056018;28;20043;-69
2023/05/25 06:09:55;;;;;;;19.95;5.28;;;14.70;89.20;;;;;;5060593;28;20032;-70
2023/05/25 06:12:21;;;;;;;13.95;4.95;;;15.00;88.00;;;;;;5056804;28;20037;-69
2023/05/25 06:14:49;;;;;;;15.13;5.67;;;15.40;86.60;;;;;;5058820;28;20419;-69
2023/05/25 06:17:15;;;;;;;11.02;5.00;;;16.70;83.90;;;;;;5057747;28;20029;-71
2023/05/25 06:19:41;;;;;;;11.47;5.57;;;17.60;80.30;;;;;;5056677;28;20437;-69
2023/05/25 06:22:07;;;;;;;23.67;4.88;;;17.30;79.50;;;;;;5056917;28;20527;-70
2023/05/25 06:24:32;;;;;;;12.83;4.87;;;17.00;81.40;;;;;;5062033;28;20032;-71
2023/05/25 06:26:58;;;;;;;10.13;4.97;;;18.20;77.70;;;;;;5053972;28;20127;-71
2023/05/25 06:29:23;;;;;;;13.57;4.80;;;17.40;78.10;;;;;;5057397;28;20029;-71
2023/05/25 06:31:49;;;;;;;10.90;4.30;;;16.50;80.10;;;;;;5052844;28;20493;-72
2023/05/25 06:34:15;;;;;;;10.87;5.37;;;16.20;82.50;;;;;;5053301;28;20031;-70
2023/05/25 06:36:41;;;;;;;16.20;5.63;;;16.30;82.80;;;;;;5055406;28;20085;-72
2023/05/25 06:39:06;;;;;;;12.63;5.45;;;17.00;79.30;;;;;;5061857;28;20029;-71
2023/05/25 06:41:32;;;;;;;16.63;5.10;;;16.70;81.50;;;;;;5058323;28;20047;-71
2023/05/25 06:43:57;;;;;;;18.57;4.77;;;16.40;81.40;;;;;;5058457;28;20112;-74
2023/05/25 06:46:23;;;;;;;14.57;5.23;;;16.30;81.50;;;;;;5064979;28;20036;-74
2023/05/25 06:48:48;;;;;;;17.27;5.80;;;16.30;81.80;;;;;;5057913;28;20025;-71
2023/05/25 06:51:14;;;;;;;16.00;5.40;;;16.50;82.40;;;;;;5056383;28;20494;-69
2023/05/25 06:53:40;;;;;;;20.77;5.40;;;16.80;81.70;;;;;;5058627;28;20028;-73
2023/05/25 06:56:06;;;;;;;11.60;5.63;;;16.50;81.10;;;;;;5056817;28;20017;-71
2023/05/25 06:58:31;;;;;;;17.33;6.43;;;16.30;83.00;;;;;;5053428;28;20066;-72
2023/05/25 07:00:59;;;;;;;21.13;5.87;;;16.30;82.50;;;;;;5057088;28;20041;-75
2023/05/25 07:03:24;;;;;;;13.20;6.22;;;16.50;82.80;;;;;;5057313;28;20554;-71
2023/05/25 07:05:50;;;;;;;12.70;4.97;;;16.30;81.70;;;;;;5056096;28;20032;-71
2023/05/25 07:08:16;;;;;;;13.27;5.60;;;16.40;82.60;;;;;;5088177;28;20021;-72
2023/05/25 07:10:41;;;;;;;19.80;5.70;;;16.20;84.00;;;;;;5055322;28;20025;-69
2023/05/25 07:13:08;;;;;;;16.93;7.27;;;16.20;83.60;;;;;;5057344;28;20464;-71
2023/05/25 07:15:33;;;;;;;20.35;5.85;;;16.10;83.00;;;;;;5061417;28;20025;-74
2023/05/25 07:17:59;;;;;;;15.77;5.47;;;16.30;83.50;;;;;;5065287;28;20329;-70
2023/05/25 07:20:26;;;;;;;11.80;5.60;;;16.50;82.20;;;;;;5059751;28;20521;-71
2023/05/25 07:22:52;;;;;;;13.40;5.20;;;16.50;84.20;;;;;;5063843;28;20028;-69
2023/05/25 07:25:18;;;;;;;16.05;5.65;;;16.30;83.30;;;;;;5058570;28;20037;-68
2023/05/25 07:27:53;;;;;;;10.38;5.43;;;16.20;83.60;;;;;;5064324;28;20027;-68
2023/05/25 07:30:19;;;;;;;12.75;5.10;;;16.10;84.50;;;;;;5064492;28;20041;-68
2023/05/25 07:32:45;;;;;;;14.52;5.18;;;16.20;85.40;;;;;;5062709;28;20016;-70
2023/05/25 07:35:10;;;;;;;15.57;5.53;;;16.20;84.70;;;;;;5061869;28;20064;-70
2023/05/25 07:37:36;;;;;;;13.10;5.30;;;16.20;85.80;;;;;;5063333;28;20499;-69
2023/05/25 07:40:02;;;;;;;12.57;5.63;;;16.10;85.60;;;;;;5058569;28;20037;-68
2023/05/25 07:42:32;;;;;;;11.80;5.47;;;16.20;85.40;;;;;;5060643;28;20029;-67
2023/05/25 07:44:59;;;;;;;20.75;6.05;;;16.10;85.00;;;;;;5054793;28;20094;-67
2023/05/25 07:47:25;;;;;;;13.88;5.90;;;16.20;85.50;;;;;;5063440;28;20028;-67
2023/05/25 07:49:51;;;;;;;12.43;5.43;;;16.50;84.50;;;;;;5060382;28;20032;-67
2023/05/25 07:52:17;;;;;;;20.27;6.53;;;16.30;83.90;;;;;;5062123;28;20037;-67
2023/05/25 07:54:44;;;;;;;18.10;6.15;;;16.20;83.50;;;;;;5062697;28;20287;-66
2023/05/25 07:57:09;;;;;;;15.05;6.20;;;16.00;83.80;;;;;;5055362;28;20040;-66
2023/05/25 07:59:35;;;;;;;16.63;6.13;;;15.80;86.30;;;;;;5054626;28;20036;-67
2023/05/25 08:02:01;;;;;;;21.17;6.40;;;15.70;84.80;;;;;;5066875;28;20035;-68
2023/05/25 08:04:26;;;;;;;18.25;6.00;;;15.80;86.70;;;;;;5063168;28;20036;-67
2023/05/25 08:06:52;;;;;;;12.07;5.80;;;15.90;85.80;;;;;;5060856;28;20404;-67
2023/05/25 08:09:18;;;;;;;15.47;6.10;;;16.00;85.60;;;;;;5062341;28;20488;-66
2023/05/25 08:11:44;;;;;;;19.93;6.97;;;16.00;87.40;;;;;;5060735;28;20036;-66
2023/05/25 08:14:10;;;;;;;17.85;6.15;;;16.20;85.30;;;;;;5061379;28;20108;-67
2023/05/25 08:16:35;;;;;;;18.17;6.60;;;16.30;85.40;;;;;;5063450;28;20170;-67
2023/05/25 08:19:01;;;;;;;17.63;6.10;;;16.40;84.40;;;;;;5062297;28;20163;-69
2023/05/25 08:21:27;;;;;;;15.57;6.18;;;16.50;86.30;;;;;;5063647;28;20230;-68
2023/05/25 08:23:53;;;;;;;15.77;5.93;;;16.30;85.90;;;;;;5060239;28;20373;-67
2023/05/25 08:26:18;;;;;;;16.93;7.43;;;16.30;86.90;;;;;;5060291;28;20036;-67
2023/05/25 08:28:44;;;;;;;16.80;6.27;;;16.30;85.70;;;;;;5061584;28;20025;-67
2023/05/25 08:31:10;;;;;;;12.07;5.83;;;16.10;86.00;;;;;;5059252;28;20279;-68
2023/05/25 08:33:36;;;;;;;12.98;6.18;;;16.10;85.10;;;;;;5062398;28;20511;-67
2023/05/25 08:36:02;;;;;;;21.30;6.93;;;16.20;85.60;;;;;;5061454;28;20040;-67
2023/05/25 08:38:28;;;;;;;15.57;6.47;;;16.20;84.20;;;;;;5066723;28;20036;-67
2023/05/25 08:41:04;;;;;;;18.93;6.80;;;16.20;85.40;;;;;;5057138;28;20041;-67
2023/05/25 08:43:31;;;;;;;17.00;6.82;;;16.40;86.80;;;;;;5057781;28;20070;-69
2023/05/25 08:46:03;;;;;;;15.88;7.15;;;16.50;85.40;;;;;;5059986;28;20049;-70
2023/05/25 08:48:31;;;;;;;18.50;6.22;;;16.50;84.60;;;;;;5056210;28;20125;-70
2023/05/25 08:51:05;;;;;;;17.23;7.28;;;16.70;85.70;;;;;;5057246;28;20052;-71
2023/05/25 08:53:35;;;;;;;17.77;7.22;;;16.60;86.30;;;;;;5060614;28;20097;-70
2023/05/25 08:56:04;;;;;;;18.52;5.93;;;16.60;86.40;;;;;;5057381;28;20040;-67
2023/05/25 08:58:32;;;;;;;15.88;6.30;;;16.60;85.60;;;;;;5059371;28;20972;-68
2023/05/25 09:01:03;;;;;;;13.60;6.55;;;16.40;85.40;;;;;;5064389;28;20123;-68
2023/05/25 09:03:32;;;;;;;13.32;6.47;;;16.30;84.60;;;;;;5066181;28;20028;-71
2023/05/25 09:05:58;;;;;;;16.08;6.43;;;16.30;86.80;;;;;;5060418;28;20028;-68
2023/05/25 09:08:25;;;;;;;15.82;6.53;;;16.30;86.40;;;;;;5060605;28;20029;-72
2023/05/25 09:10:52;;;;;;;18.45;7.40;;;16.10;85.60;;;;;;5062845;28;20512;-68
2023/05/25 09:13:18;;;;;;;13.60;7.10;;;16.20;84.80;;;;;;5072089;28;20032;-68
2023/05/25 09:15:44;;;;;;;16.92;7.13;;;16.30;85.80;;;;;;5074558;28;20499;-69
2023/05/25 09:18:09;;;;;;;16.83;7.10;;;16.50;88.00;;;;;;5074438;28;20115;-67
2023/05/25 09:20:35;;;;;;;12.00;6.53;;;16.50;86.50;;;;;;5072532;28;20816;-70
2023/05/25 09:23:02;;;;;;;14.97;7.17;;;16.60;87.10;;;;;;5073921;28;20024;-73
2023/05/25 09:25:29;;;;;;;15.10;6.72;;;16.60;85.80;;;;;;5068208;28;20123;-70
2023/05/25 09:27:57;;;;;;;20.23;6.85;;;16.50;86.30;;;;;;5057798;28;20392;-71
2023/05/25 09:30:23;;;;;;;17.08;8.00;;;16.70;85.30;;;;;;5062152;28;20044;-70
2023/05/25 09:32:50;;;;;;;20.27;8.48;;;16.80;86.10;;;;;;5058760;28;20043;-69
2023/05/25 09:35:16;;;;;;;17.92;6.95;;;16.70;84.80;;;;;;5061627;28;20029;-71
2023/05/25 09:37:42;;;;;;;19.30;7.68;;;16.90;85.00;;;;;;5056490;28;20033;-71
2023/05/25 09:40:12;;;;;;;24.45;7.70;;;17.00;85.60;;;;;;5063083;28;20034;-72
2023/05/25 09:42:38;;;;;;;17.70;6.88;;;17.00;87.60;;;;;;5058083;28;20497;-71
2023/05/25 09:45:05;;;;;;;20.88;7.53;;;17.10;84.30;;;;;;5064018;28;20029;-69
2023/05/25 09:47:30;;;;;;;12.60;6.53;;;17.20;87.00;;;;;;5058722;28;20111;-69
2023/05/25 09:49:56;;;;;;;26.97;8.07;;;17.20;85.20;;;;;;5059195;28;20120;-68
2023/05/25 09:52:22;;;;;;;20.90;8.10;;;17.30;84.10;;;;;;5058920;28;20032;-72
2023/05/25 09:54:49;;;;;;;22.70;7.90;;;17.40;85.20;;;;;;5061138;28;20040;-69
2023/05/25 09:57:15;;;;;;;20.70;8.38;;;17.50;85.10;;;;;;5056788;28;20028;-67
2023/05/25 09:59:42;;;;;;;18.30;8.13;;;17.50;85.50;;;;;;5060453;28;20504;-69
2023/05/25 10:02:08;;;;;;;;;;;17.70;82.90;;;;;;5063056;28;20104;-67
2023/05/25 10:04:33;;;;;;;18.55;7.95;;;17.90;84.10;;;;;;5059982;28;20034;-72
2023/05/25 10:07:00;;;;;;;15.83;7.77;;;18.20;82.20;;;;;;5060665;28;20804;-68
2023/05/25 10:09:29;;;;;;;;;;;18.80;79.80;;;;;;5057885;28;20029;-72
2023/05/25 10:11:56;;;;;;;14.93;8.18;;;19.40;80.60;;;;;;5055678;28;19913;-68
2023/05/25 10:14:25;;;;;;;23.83;7.47;;;19.40;80.50;;;;;;5057416;28;20111;-71
2023/05/25 10:16:53;;;;;;;23.00;8.45;;;19.60;81.10;;;;;;5055324;28;20155;-67
2023/05/25 10:19:48;;;;;;;20.25;8.15;;;19.70;79.70;;;;;;5059250;28;20044;-71
2023/05/25 10:22:32;;;;;;;20.55;8.43;;;19.20;76.40;;;;;;5056508;28;20044;-68
2023/05/25 10:25:22;;;;;;;19.25;7.95;;;19.00;80.20;;;;;;5057288;28;20044;-68
2023/05/25 10:28:01;;;;;;;21.92;8.90;;;18.90;82.80;;;;;;5059592;28;20404;-67
2023/05/25 10:30:28;;;;;;;17.88;8.75;;;18.90;78.90;;;;;;5056962;28;20036;-72
2023/05/25 10:32:55;;;;;;;18.02;7.18;;;18.70;80.70;;;;;;5058928;28;20032;-69
2023/05/25 10:35:22;;;;;;;23.00;7.75;;;18.60;81.20;;;;;;5090909;28;20432;-70
2023/05/25 10:37:51;;;;;;;17.20;8.43;;;18.50;79.30;;;;;;5054805;28;20039;-71
2023/05/25 10:40:18;;;;;;;17.98;8.70;;;18.60;80.40;;;;;;5060696;28;20473;-71
2023/05/25 10:42:44;;;;;;;17.98;8.85;;;18.90;82.50;;;;;;5055702;28;20409;-70
2023/05/25 10:45:11;;;;;;;18.55;8.13;;;19.10;79.50;;;;;;5057302;28;20040;-69
2023/05/25 10:47:42;;;;;;;20.02;8.15;;;18.80;82.50;;;;;;5058208;28;20030;-72
2023/05/25 10:50:18;;;;;;;19.98;8.85;;;18.80;82.30;;;;;;5064240;28;20082;-69
2023/05/25 10:52:43;;;;;;;16.38;7.85;;;18.80;83.20;;;;;;5052193;28;20025;-69
2023/05/25 10:55:10;;;;;;;16.50;8.40;;;19.20;80.20;;;;;;5056850;28;20035;-66
2023/05/25 10:57:36;;;;;;;13.05;7.20;;;19.20;77.90;;;;;;5061172;28;20070;-69
2023/05/25 11:00:07;;;;;;;16.60;8.30;;;19.30;81.60;;;;;;5055909;28;20044;-71
2023/05/25 11:02:54;;;;;;;31.52;8.73;;;19.40;80.00;;;;;;5062922;28;20032;-68
2023/05/25 11:05:25;;;;;;;16.13;8.67;;;19.70;79.50;;;;;;5063230;28;20036;-69
2023/05/25 11:07:55;;;;;;;14.43;8.25;;;19.60;79.60;;;;;;5058404;28;20029;-68
2023/05/25 11:10:49;;;;;;;18.80;7.45;;;19.70;79.50;;;;;;5063890;28;20065;-69
2023/05/25 11:13:29;;;;;;;17.33;7.97;;;19.80;80.60;;;;;;5062017;28;20288;-70
2023/05/25 11:16:14;;;;;;;20.58;8.57;;;20.00;81.50;;;;;;5059251;28;20034;-70
2023/05/25 11:18:40;;;;;;;20.23;8.55;;;19.90;80.70;;;;;;5056966;28;20032;-70
2023/05/25 11:21:26;;;;;;;12.85;8.20;;;19.60;80.00;;;;;;5054727;28;20670;-69
2023/05/25 11:23:58;;;;;;;14.98;8.30;;;19.90;80.80;;;;;;5057830;28;20090;-68
2023/05/25 11:26:27;;;;;;;20.75;9.82;;;19.80;80.60;;;;;;5051403;28;20037;-70
2023/05/25 11:28:54;;;;;;;15.65;7.95;;;19.80;79.30;;;;;;5056283;28;20025;-72
2023/05/25 11:31:31;;;;;;;16.27;8.50;;;19.60;80.60;;;;;;5059644;28;20078;-71
2023/05/25 11:33:58;;;;;;;15.88;8.88;;;19.70;80.50;;;;;;5057607;28;20016;-71
2023/05/25 11:36:24;;;;;;;17.77;9.20;;;19.90;81.60;;;;;;5061952;28;20508;-71
2023/05/25 11:38:51;;;;;;;;;;;19.90;80.50;;;;;;5059523;28;20037;-74
2023/05/25 11:41:26;;;;;;;24.15;9.48;;;19.90;79.60;;;;;;5058781;28;19927;-75
2023/05/25 11:43:52;;;;;;;13.25;8.45;;;19.80;79.70;;;;;;5055493;28;20047;-70
2023/05/25 11:46:20;;;;;;;15.25;8.43;;;19.70;81.70;;;;;;5060793;28;20067;-68
2023/05/25 11:48:53;;;;;;;23.23;8.43;;;19.80;81.40;;;;;;5055462;28;20039;-69
2023/05/25 11:51:27;;;;;;;17.20;8.15;;;19.80;81.50;;;;;;5058361;28;20028;-70
2023/05/25 11:53:53;;;;;;;16.80;8.50;;;19.80;82.20;;;;;;5057115;28;20033;-68
2023/05/25 11:56:19;;;;;;;18.52;7.47;;;19.70;81.70;;;;;;5058572;28;20067;-68
2023/05/25 11:58:46;;;;;;;19.50;8.85;;;19.80;82.40;;;;;;5050410;28;20031;-69
2023/05/25 12:01:22;;;;;;;19.45;9.55;;;20.00;83.10;;;;;;5059356;28;20041;-70
2023/05/25 12:03:54;;;;;;;12.00;7.03;;;20.50;84.10;;;;;;5057952;28;20039;-71
2023/05/25 12:06:32;;;;;;;16.25;8.60;;;20.60;80.40;;;;;;5062941;28;20036;-67
2023/05/25 12:09:00;;;;;;;18.00;8.80;;;20.70;81.30;;;;;;5056401;28;20023;-65
2023/05/25 12:11:38;;;;;;;16.42;8.52;;;21.00;83.10;;;;;;5059857;28;20025;-63
2023/05/25 12:14:05;;;;;;;19.83;8.50;;;21.00;81.60;;;;;;5057678;28;20101;-63
2023/05/25 12:16:37;;;;;;;13.90;7.63;;;20.90;83.30;;;;;;5061906;28;20241;-64
2023/05/25 12:19:04;;;;;;;16.85;7.45;;;20.80;82.00;;;;;;5056881;28;20132;-63
2023/05/25 12:21:30;;;;;;;17.85;7.53;;;20.70;81.90;;;;;;5060170;28;20048;-63
2023/05/25 12:23:56;;;;;;;17.60;7.75;;;20.50;81.00;;;;;;5059662;28;20123;-64
2023/05/25 12:26:22;;;;;;;14.48;7.75;;;20.40;82.70;;;;;;5056998;28;20056;-64
2023/05/25 12:29:04;;;;;;;15.63;7.37;;;20.20;83.10;;;;;;5086424;27;20029;-64
2023/05/25 12:31:32;;;;;;;15.55;7.13;;;20.20;81.70;;;;;;5063407;28;20112;-63
2023/05/25 12:34:18;;;;;;;14.98;6.75;;;20.30;84.10;;;;;;5057945;28;20489;-64
2023/05/25 12:36:55;;;;;;;14.85;7.03;;;20.40;82.50;;;;;;5055791;28;20453;-65
2023/05/25 12:39:29;;;;;;;15.13;6.38;;;20.40;83.10;;;;;;5060179;28;20476;-63
2023/05/25 12:42:00;;;;;;;20.10;7.50;;;20.80;83.80;;;;;;5057289;28;20416;-65
2023/05/25 12:44:34;;;;;;;20.10;6.72;;;21.00;83.90;;;;;;5057087;28;20060;-63
2023/05/25 12:47:22;;;;;;;20.63;7.95;;;21.00;83.90;;;;;;5055529;28;20063;-65